createdAt,value
2023-04-15T00:00:40.757Z,17.1429
2023-04-15T00:01:40.831Z,16.6429
2023-04-15T00:02:41.015Z,15.5
2023-04-15T00:03:41.137Z,16.7143
2023-04-15T00:04:40.951Z,15.6429
2023-04-15T00:05:40.970Z,15.8571
2023-04-15T00:06:41.013Z,16.2143
2023-04-15T00:07:41.052Z,22.1429
2023-04-15T00:08:41.089Z,30.6429
2023-04-15T00:09:41.138Z,24
2023-04-15T00:10:41.167Z,19.5
2023-04-15T00:11:41.207Z,17
2023-04-15T00:12:41.248Z,17.1429
2023-04-15T00:13:41.287Z,18.5
2023-04-15T00:14:41.332Z,18.3571
2023-04-15T00:15:41.370Z,23.1429
2023-04-15T00:16:41.484Z,18
2023-04-15T00:17:41.496Z,17.4286
2023-04-15T00:18:41.499Z,18.7143
2023-04-15T00:19:41.539Z,18
2023-04-15T00:20:41.590Z,18.7143
2023-04-15T00:21:41.614Z,19.1429
2023-04-15T00:22:41.662Z,18.5
2023-04-15T00:23:41.704Z,18.2143
2023-04-15T00:24:41.740Z,18
2023-04-15T00:25:41.790Z,18.4286
2023-04-15T00:26:41.841Z,18.6429
2023-04-15T00:27:41.861Z,18.5
2023-04-15T00:28:41.900Z,19
2023-04-15T00:29:41.937Z,19.5
2023-04-15T00:30:42.012Z,19.5
2023-04-15T00:31:42.018Z,20.1429
2023-04-15T00:32:42.054Z,20
2023-04-15T00:33:42.096Z,20.7143
2023-04-15T00:34:42.132Z,20.4286
2023-04-15T00:35:42.170Z,21.2143
2023-04-15T00:36:42.214Z,20.2143
2023-04-15T00:37:43.602Z,20.8571
2023-04-15T00:38:42.295Z,19.9286
2023-04-15T00:39:42.337Z,19.4286
2023-04-15T00:40:42.377Z,19.7143
2023-04-15T00:41:42.416Z,20.4286
2023-04-15T00:42:42.458Z,20.9286
2023-04-15T00:43:42.489Z,19.5
2023-04-15T00:44:42.537Z,20.1429
2023-04-15T00:45:42.643Z,19.9286
2023-04-15T00:46:42.635Z,22
2023-04-15T00:47:42.693Z,20.7143
2023-04-15T00:48:42.709Z,19.3571
2023-04-15T00:49:42.748Z,19.6429
2023-04-15T00:50:42.795Z,20.8571
2023-04-15T00:51:42.837Z,21.5
2023-04-15T00:52:42.872Z,20.5
2023-04-15T00:53:42.922Z,22
2023-04-15T00:54:42.957Z,21.2143
2023-04-15T00:55:43.012Z,21.8571
2023-04-15T00:56:43.034Z,21.3571
2023-04-15T00:57:43.088Z,21.9286
2023-04-15T00:58:43.126Z,21.5
2023-04-15T00:59:43.166Z,23
2023-04-15T01:00:43.209Z,22.3571
2023-04-15T01:01:43.283Z,23.3571
2023-04-15T01:02:43.440Z,22.1429
2023-04-15T01:03:43.442Z,22.2143
2023-04-15T01:04:43.385Z,23.5
2023-04-15T01:05:43.430Z,22.2143
2023-04-15T01:06:43.462Z,23.3571
2023-04-15T01:07:43.493Z,23.7143
2023-04-15T01:08:43.531Z,22
2023-04-15T01:09:43.574Z,22.8571
2023-04-15T01:10:43.621Z,23.7143
2023-04-15T01:11:43.663Z,22.4286
2023-04-15T01:12:43.707Z,23.4286
2023-04-15T01:13:43.746Z,23
2023-04-15T01:14:43.787Z,23.5
2023-04-15T01:15:43.878Z,23.4286
2023-04-15T01:16:43.875Z,25
2023-04-15T01:17:43.952Z,24.2143
2023-04-15T01:18:43.967Z,24
2023-04-15T01:19:44.022Z,23.8571
2023-04-15T01:20:44.040Z,23.8571
2023-04-15T01:21:44.072Z,24.5
2023-04-15T01:22:44.127Z,23.6429
2023-04-15T01:23:44.160Z,25.3571
2023-04-15T01:24:44.236Z,23.7143
2023-04-15T01:25:44.243Z,23.5
2023-04-15T01:26:44.710Z,24.3571
2023-04-15T01:27:44.324Z,25.4286
2023-04-15T01:28:44.370Z,23.5
2023-04-15T01:29:44.413Z,25.4286
2023-04-15T01:30:44.471Z,25.3571
2023-04-15T01:31:44.542Z,25
2023-04-15T01:32:44.553Z,25.2143
2023-04-15T01:33:44.591Z,23.4286
2023-04-15T01:34:44.625Z,24.6429
2023-04-15T01:35:44.667Z,24.1429
2023-04-15T01:36:44.698Z,24.5
2023-04-15T01:37:44.739Z,25.9286
2023-04-15T01:38:44.781Z,24.5
2023-04-15T01:39:44.827Z,25.9286
2023-04-15T01:40:44.859Z,25.8571
2023-04-15T01:41:44.896Z,24.5
2023-04-15T01:42:44.950Z,25.1429
2023-04-15T01:43:44.982Z,25.3571
2023-04-15T01:44:45.025Z,24.1429
2023-04-15T01:45:45.065Z,26.1429
2023-04-15T01:46:45.143Z,26.1429
2023-04-15T01:47:45.201Z,26.5
2023-04-15T01:48:45.191Z,27
2023-04-15T01:49:45.238Z,26.6429
2023-04-15T01:50:45.278Z,24.4286
2023-04-15T01:51:45.326Z,25.7143
2023-04-15T01:52:45.364Z,25.8571
2023-04-15T01:53:45.403Z,25.4286
2023-04-15T01:54:45.446Z,26.9286
2023-04-15T01:55:45.487Z,25.3571
2023-04-15T01:56:45.539Z,25
2023-04-15T01:57:45.574Z,25.7143
2023-04-15T01:58:45.610Z,26.4286
2023-04-15T01:59:45.657Z,26.5
2023-04-15T02:00:45.732Z,26.2143
2023-04-15T02:01:45.757Z,27.7143
2023-04-15T02:02:45.903Z,27.5
2023-04-15T02:03:45.884Z,26.8571
2023-04-15T02:04:45.862Z,26.6429
2023-04-15T02:05:45.896Z,28.4286
2023-04-15T02:06:45.953Z,26.2143
2023-04-15T02:07:45.990Z,26.3571
2023-04-15T02:08:46.033Z,26.3571
2023-04-15T02:09:46.081Z,25.8571
2023-04-15T02:10:46.123Z,25.9286
2023-04-15T02:11:46.161Z,25.7143
2023-04-15T02:12:46.196Z,26.9286
2023-04-15T02:13:46.242Z,25.8571
2023-04-15T02:14:46.287Z,26.4286
2023-04-15T02:15:46.328Z,26.9286
2023-04-15T02:16:46.419Z,27.3571
2023-04-15T02:17:46.486Z,26.6429
2023-04-15T02:18:46.451Z,26.7143
2023-04-15T02:19:46.487Z,27.3571
2023-04-15T02:20:46.521Z,26.5
2023-04-15T02:21:46.568Z,26.1429
2023-04-15T02:22:46.602Z,26.9286
2023-04-15T02:23:46.654Z,27
2023-04-15T02:24:46.696Z,27.3571
2023-04-15T02:25:53.329Z,28.1429
2023-04-15T02:26:46.814Z,26.4286
2023-04-15T02:27:46.814Z,27.4286
2023-04-15T02:28:46.848Z,27.7143
2023-04-15T02:29:46.906Z,27.2143
2023-04-15T02:30:46.938Z,29.3571
2023-04-15T02:31:46.982Z,28
2023-04-15T02:32:47.020Z,28.7143
2023-04-15T02:33:47.052Z,27.8571
2023-04-15T02:34:47.099Z,28.9286
2023-04-15T02:35:47.128Z,28.7143
2023-04-15T02:36:47.166Z,28.6429
2023-04-15T02:37:47.217Z,27.9286
2023-04-15T02:38:47.251Z,29.9286
2023-04-15T02:39:47.290Z,28.9286
2023-04-15T02:40:47.329Z,29
2023-04-15T02:41:47.389Z,29.2143
2023-04-15T02:42:47.425Z,28.1429
2023-04-15T02:43:47.457Z,29.2143
2023-04-15T02:44:47.503Z,29.7143
2023-04-15T02:45:47.591Z,29.5
2023-04-15T02:46:47.577Z,29.1429
2023-04-15T02:47:47.640Z,28.6429
2023-04-15T02:48:47.662Z,29.4286
2023-04-15T02:49:47.712Z,29.3571
2023-04-15T02:50:47.738Z,28.1429
2023-04-15T02:51:47.775Z,29.5
2023-04-15T02:52:47.810Z,29.2143
2023-04-15T02:53:47.864Z,29.5
2023-04-15T02:54:47.907Z,29.8571
2023-04-15T02:55:47.939Z,30.2143
2023-04-15T02:56:47.984Z,30.1429
2023-04-15T02:57:48.024Z,28.5
2023-04-15T02:58:48.053Z,30.2143
2023-04-15T02:59:48.091Z,30.2143
2023-04-15T03:00:48.143Z,28.8571
2023-04-15T03:01:48.313Z,30.5
2023-04-15T03:02:48.428Z,29
2023-04-15T03:03:48.342Z,28.5
2023-04-15T03:04:48.302Z,31.2143
2023-04-15T03:05:48.339Z,29.7143
2023-04-15T03:06:48.381Z,29.4286
2023-04-15T03:07:48.423Z,31
2023-04-15T03:08:48.453Z,30
2023-04-15T03:09:48.502Z,31.9286
2023-04-15T03:10:48.558Z,29.7143
2023-04-15T03:11:48.589Z,29.8571
2023-04-15T03:12:48.647Z,28.2143
2023-04-15T03:13:48.671Z,29.5
2023-04-15T03:14:48.729Z,28.7143
2023-04-15T03:15:48.877Z,29.6429
2023-04-15T03:16:48.802Z,28.7143
2023-04-15T03:17:48.858Z,30.2143
2023-04-15T03:18:48.881Z,29.9286
2023-04-15T03:19:48.920Z,29.6429
2023-04-15T03:20:48.952Z,29.7143
2023-04-15T03:21:48.999Z,29.5
2023-04-15T03:22:49.037Z,29.9286
2023-04-15T03:23:49.077Z,31
2023-04-15T03:24:49.108Z,29.7143
2023-04-15T03:25:49.158Z,28.7143
2023-04-15T03:26:49.193Z,30.3571
2023-04-15T03:27:49.238Z,29.3571
2023-04-15T03:28:49.280Z,30.4286
2023-04-15T03:29:49.318Z,28.6429
2023-04-15T03:30:49.370Z,30.2143
2023-04-15T03:31:49.396Z,30.2143
2023-04-15T03:32:49.465Z,29.7143
2023-04-15T03:33:49.486Z,30.1429
2023-04-15T03:34:49.537Z,28.5
2023-04-15T03:35:49.573Z,30.1429
2023-04-15T03:36:49.618Z,29.5
2023-04-15T03:37:49.660Z,31.2143
2023-04-15T03:38:49.711Z,30.4286
2023-04-15T03:39:49.740Z,30.9286
2023-04-15T03:40:49.783Z,30
2023-04-15T03:41:49.833Z,30
2023-04-15T03:42:49.872Z,30.5
2023-04-15T03:43:49.900Z,29.2143
2023-04-15T03:44:49.935Z,31.3571
2023-04-15T03:45:49.991Z,30
2023-04-15T03:46:50.118Z,29.3571
2023-04-15T03:47:50.147Z,29
2023-04-15T03:48:50.104Z,30.1429
2023-04-15T03:49:50.144Z,29.5
2023-04-15T03:50:50.184Z,30.1429
2023-04-15T03:51:50.224Z,29.7143
2023-04-15T03:52:51.317Z,29.9286
2023-04-15T03:53:50.316Z,29
2023-04-15T03:54:50.361Z,29.8571
2023-04-15T03:55:50.403Z,29.7143
2023-04-15T03:56:50.443Z,30.1429
2023-04-15T03:57:50.482Z,28.4286
2023-04-15T03:58:50.525Z,29.3571
2023-04-15T03:59:50.560Z,30.3571
2023-04-15T04:00:50.609Z,30.9286
2023-04-15T04:01:50.733Z,29.4286
2023-04-15T04:02:50.803Z,31.1429
2023-04-15T04:03:50.795Z,29.3571
2023-04-15T04:04:50.996Z,28.8571
2023-04-15T04:05:50.797Z,30.3571
2023-04-15T04:06:50.839Z,30.4286
2023-04-15T04:07:50.870Z,29.9286
2023-04-15T04:08:50.922Z,30.4286
2023-04-15T04:09:50.954Z,29
2023-04-15T04:10:51.013Z,30.1429
2023-04-15T04:11:51.041Z,29.8571
2023-04-15T04:12:51.083Z,29.6429
2023-04-15T04:13:51.125Z,28.3571
2023-04-15T04:14:51.161Z,30.5
2023-04-15T04:15:51.261Z,29.3571
2023-04-15T04:16:51.268Z,30.6429
2023-04-15T04:17:51.321Z,28.7143
2023-04-15T04:18:51.331Z,28.8571
2023-04-15T04:19:51.358Z,29
2023-04-15T04:20:51.398Z,31.2143
2023-04-15T04:21:51.445Z,29.8571
2023-04-15T04:22:51.477Z,29.4286
2023-04-15T04:23:51.537Z,28.5
2023-04-15T04:24:51.559Z,28.3571
2023-04-15T04:25:51.600Z,29.6429
2023-04-15T04:26:51.645Z,29.6429
2023-04-15T04:27:52.685Z,29.7143
2023-04-15T04:29:51.760Z,28
2023-04-15T04:30:51.819Z,29
2023-04-15T04:31:51.895Z,29.4286
2023-04-15T04:32:51.932Z,27.2143
2023-04-15T04:33:51.916Z,28.4286
2023-04-15T04:34:51.972Z,28
2023-04-15T04:35:52.001Z,28.1429
2023-04-15T04:36:52.042Z,28.6429
2023-04-15T04:37:52.087Z,28.6429
2023-04-15T04:38:52.127Z,27.2143
2023-04-15T04:39:52.155Z,27.6429
2023-04-15T04:40:52.203Z,29.2143
2023-04-15T04:41:52.243Z,26.4286
2023-04-15T04:42:52.283Z,27.4286
2023-04-15T04:43:52.321Z,28.3571
2023-04-15T04:44:52.363Z,27
2023-04-15T04:45:52.432Z,26.9286
2023-04-15T04:46:52.430Z,26.8571
2023-04-15T04:47:52.516Z,28.5
2023-04-15T04:48:52.507Z,26.7143
2023-04-15T04:49:52.555Z,27.9286
2023-04-15T04:50:52.592Z,26.4286
2023-04-15T04:51:52.641Z,26.4286
2023-04-15T04:52:52.674Z,27.7143
2023-04-15T04:53:52.720Z,27
2023-04-15T04:54:52.762Z,28.3571
2023-04-15T04:55:52.805Z,26.2143
2023-04-15T04:56:52.835Z,26.2143
2023-04-15T04:57:52.873Z,26.6429
2023-04-15T04:58:52.916Z,27.6429
2023-04-15T04:59:52.943Z,27.7143
2023-04-15T05:00:53.020Z,26.7143
2023-04-15T05:01:53.067Z,27.5
2023-04-15T05:02:53.160Z,26.9286
2023-04-15T05:03:53.185Z,26.5
2023-04-15T05:04:53.145Z,27.1429
2023-04-15T05:05:53.185Z,26.3571
2023-04-15T05:06:53.231Z,26.8571
2023-04-15T05:07:53.270Z,27.2143
2023-04-15T05:08:53.308Z,28.2143
2023-04-15T05:09:53.357Z,27.1429
2023-04-15T05:10:53.396Z,26.9286
2023-04-15T05:11:53.435Z,27.6429
2023-04-15T05:12:53.471Z,26.2143
2023-04-15T05:13:53.511Z,27.1429
2023-04-15T05:14:53.560Z,27.3571
2023-04-15T05:15:53.629Z,26.6429
2023-04-15T05:16:53.636Z,26.7143
2023-04-15T05:17:53.693Z,26.4286
2023-04-15T05:18:53.730Z,26.1429
2023-04-15T05:19:53.773Z,25.8571
2023-04-15T05:20:53.804Z,26.2143
2023-04-15T05:21:53.846Z,25.9286
2023-04-15T05:22:53.887Z,26.5
2023-04-15T05:23:54.042Z,25.7143
2023-04-15T05:24:54.079Z,26.3571
2023-04-15T05:25:54.080Z,26.1429
2023-04-15T05:27:54.111Z,26.9286
2023-04-15T05:28:54.118Z,25.1429
2023-04-15T05:29:54.154Z,24.6429
2023-04-15T05:30:54.237Z,24.6429
2023-04-15T05:31:54.228Z,25.5
2023-04-15T05:32:54.305Z,25.4286
2023-04-15T05:33:54.318Z,25.6429
2023-04-15T05:34:54.353Z,26.2143
2023-04-15T05:35:54.401Z,26.3571
2023-04-15T05:36:54.446Z,26
2023-04-15T05:37:54.475Z,25.1429
2023-04-15T05:38:54.519Z,25.4286
2023-04-15T05:39:54.554Z,25.3571
2023-04-15T05:40:54.602Z,25.7143
2023-04-15T05:41:54.646Z,25.8571
2023-04-15T05:42:54.684Z,24.8571
2023-04-15T05:43:54.720Z,24.4286
2023-04-15T05:44:54.766Z,24.9286
2023-04-15T05:45:54.820Z,23.7143
2023-04-15T05:46:54.838Z,25.3571
2023-04-15T05:47:54.881Z,24.1429
2023-04-15T05:48:56.507Z,24.3571
2023-04-15T05:49:54.966Z,24.9286
2023-04-15T05:50:55.020Z,24.4286
2023-04-15T05:51:55.051Z,24.4286
2023-04-15T05:52:55.084Z,24.4286
2023-04-15T05:53:55.127Z,24.4286
2023-04-15T05:54:55.165Z,24.5
2023-04-15T05:55:55.200Z,24.7143
2023-04-15T05:56:55.242Z,25
2023-04-15T05:57:55.276Z,24.2143
2023-04-15T05:58:55.313Z,23.7143
2023-04-15T05:59:55.348Z,24
2023-04-15T06:00:55.381Z,23.4286
2023-04-15T06:01:55.441Z,24.7143
2023-04-15T06:02:55.512Z,24.6429
2023-04-15T06:03:55.593Z,23.9286
2023-04-15T06:04:55.609Z,23.6429
2023-04-15T06:05:55.599Z,22.9286
2023-04-15T06:06:55.639Z,24.2143
2023-04-15T06:07:55.685Z,22.6429
2023-04-15T06:08:55.710Z,22.6429
2023-04-15T06:09:55.754Z,23.4286
2023-04-15T06:10:55.789Z,22.3571
2023-04-15T06:11:55.833Z,23.7143
2023-04-15T06:12:55.869Z,23.7143
2023-04-15T06:13:55.910Z,24.7143
2023-04-15T06:14:55.951Z,23
2023-04-15T06:15:56.024Z,22.2143
2023-04-15T06:16:56.018Z,23.8571
2023-04-15T06:17:56.101Z,22.6429
2023-04-15T06:18:56.114Z,22.9286
2023-04-15T06:19:56.134Z,22.4286
2023-04-15T06:20:56.174Z,23
2023-04-15T06:21:56.249Z,22.7143
2023-04-15T06:22:56.277Z,21.2143
2023-04-15T06:23:56.305Z,21.7143
2023-04-15T06:24:56.357Z,21.2143
2023-04-15T06:25:56.382Z,23
2023-04-15T06:26:56.426Z,22.1429
2023-04-15T06:27:56.473Z,22
2023-04-15T06:28:56.505Z,21.9286
2023-04-15T06:29:56.539Z,21.4286
2023-04-15T06:30:56.579Z,21.5
2023-04-15T06:31:56.699Z,21.4286
2023-04-15T06:32:56.698Z,20.2143
2023-04-15T06:33:56.694Z,20.5
2023-04-15T06:34:56.749Z,21.1429
2023-04-15T06:35:56.780Z,20.2143
2023-04-15T06:36:56.821Z,20.7143
2023-04-15T06:37:56.868Z,20.3571
2023-04-15T06:38:56.900Z,20.5
2023-04-15T06:39:56.947Z,20.2143
2023-04-15T06:40:56.977Z,20.3571
2023-04-15T06:41:57.025Z,20.6429
2023-04-15T06:42:57.066Z,20
2023-04-15T06:43:57.087Z,20.4286
2023-04-15T06:44:57.138Z,19.4286
2023-04-15T06:45:57.229Z,21.1429
2023-04-15T06:46:57.204Z,19.7143
2023-04-15T06:47:57.283Z,18.9286
2023-04-15T06:48:57.294Z,19.5
2023-04-15T06:49:57.340Z,19.3571
2023-04-15T06:50:57.386Z,19.9286
2023-04-15T06:51:57.424Z,19.8571
2023-04-15T06:52:57.453Z,19.6429
2023-04-15T06:53:57.498Z,18.6429
2023-04-15T06:54:57.545Z,18.7143
2023-04-15T06:55:57.577Z,18.8571
2023-04-15T06:56:57.629Z,18.4286
2023-04-15T06:57:57.665Z,18.6429
2023-04-15T06:58:57.703Z,18.7143
2023-04-15T06:59:57.745Z,18
2023-04-15T07:00:57.801Z,18.6429
2023-04-15T07:01:57.830Z,17.5
2023-04-15T07:02:57.898Z,17.8571
2023-04-15T07:03:57.926Z,17.5
2023-04-15T07:04:57.970Z,18.1429
2023-04-15T07:05:57.984Z,18.1429
2023-04-15T07:06:58.055Z,17
2023-04-15T07:07:58.068Z,17.7143
2023-04-15T07:08:58.108Z,17.3571
2023-04-15T07:09:58.145Z,17.2143
2023-04-15T07:10:58.190Z,17
2023-04-15T07:11:58.218Z,16.3571
2023-04-15T07:12:58.255Z,16.4286
2023-04-15T07:13:58.332Z,15.9286
2023-04-15T07:14:58.345Z,15.8571
2023-04-15T07:15:58.388Z,15.5
2023-04-15T07:16:58.492Z,15.2143
2023-04-15T07:17:58.501Z,15.3571
2023-04-15T07:18:58.510Z,16.7143
2023-04-15T07:19:58.556Z,15.6429
2023-04-15T07:20:58.580Z,16.2143
2023-04-15T07:21:58.629Z,15.8571
2023-04-15T07:22:58.669Z,15.3571
2023-04-15T07:23:58.714Z,16
2023-04-15T07:24:58.760Z,14.9286
2023-04-15T07:25:58.790Z,15.7143
2023-04-15T07:27:00.342Z,15.8571
2023-04-15T07:27:58.904Z,16.3571
2023-04-15T07:29:58.956Z,15.6429
2023-04-15T07:30:59.035Z,14.9286
2023-04-15T07:31:59.031Z,15.3571
2023-04-15T07:32:59.149Z,15.8571
2023-04-15T07:33:59.128Z,15.4286
2023-04-15T07:34:59.165Z,15.2143
2023-04-15T07:35:59.208Z,15
2023-04-15T07:36:59.242Z,14.8571
2023-04-15T07:37:59.281Z,15
2023-04-15T07:38:59.332Z,15.2143
2023-04-15T07:39:59.362Z,15.3571
2023-04-15T07:40:59.404Z,14.6429
2023-04-15T07:41:59.440Z,15.3571
2023-04-15T07:42:59.486Z,15.6429
2023-04-15T07:43:59.518Z,15.9286
2023-04-15T07:44:59.564Z,15.1429
2023-04-15T07:45:59.658Z,14.9286
2023-04-15T07:46:59.639Z,16.8571
2023-04-15T07:47:59.775Z,15
2023-04-15T07:48:59.974Z,15.2143
2023-04-15T07:49:59.752Z,16.3571
2023-04-15T07:50:59.801Z,16.5
2023-04-15T07:51:59.838Z,18.1429
2023-04-15T07:52:59.868Z,16.3571
2023-04-15T07:53:59.908Z,16.9286
2023-04-15T07:54:59.951Z,16
2023-04-15T07:55:59.993Z,16
2023-04-15T07:57:00.045Z,15.2143
2023-04-15T07:58:00.152Z,16.6429
2023-04-15T07:59:00.371Z,17.3571
2023-04-15T08:00:00.173Z,16.7143
2023-04-15T08:01:00.192Z,16.5
2023-04-15T08:02:00.317Z,17.2143
2023-04-15T08:03:00.391Z,17.2143
2023-04-15T08:04:00.490Z,16
2023-04-15T08:05:00.380Z,15.8571
2023-04-15T08:06:00.388Z,16.5
2023-04-15T08:07:00.440Z,15.4286
2023-04-15T08:08:00.483Z,16.1429
2023-04-15T08:09:00.884Z,17
2023-04-15T08:10:00.564Z,15.3571
2023-04-15T08:11:00.626Z,16.3571
2023-04-15T08:12:00.640Z,14.5
2023-04-15T08:13:00.680Z,16.4286
2023-04-15T08:14:00.719Z,15.4286
2023-04-15T08:15:00.766Z,15.6429
2023-04-15T08:16:00.892Z,15.4286
2023-04-15T08:17:00.842Z,15.9286
2023-04-15T08:18:00.953Z,16.5
2023-04-15T08:19:01.155Z,15.7143
2023-04-15T08:20:00.964Z,15.3571
2023-04-15T08:21:00.999Z,15.9286
2023-04-15T08:22:01.044Z,16.1429
2023-04-15T08:23:01.083Z,16.1429
2023-04-15T08:24:01.113Z,15.8571
2023-04-15T08:25:01.160Z,15.5
2023-04-15T08:26:01.199Z,17.2143
2023-04-15T08:27:01.237Z,15.5
2023-04-15T08:28:01.281Z,16.3571
2023-04-15T08:29:01.651Z,16.3571
2023-04-15T08:30:04.163Z,16.6429
2023-04-15T08:31:01.400Z,16.4286
2023-04-15T08:32:01.440Z,16.1429
2023-04-15T08:33:01.542Z,16.2143
2023-04-15T08:34:01.519Z,16.5
2023-04-15T08:35:01.569Z,16.6429
2023-04-15T08:36:01.604Z,15.8571
2023-04-15T08:37:01.648Z,16.5
2023-04-15T08:38:01.686Z,17.1429
2023-04-15T08:39:01.970Z,16.6429
2023-04-15T08:40:01.752Z,16.1429
2023-04-15T08:41:01.830Z,17.3571
2023-04-15T08:42:01.841Z,16.6429
2023-04-15T08:43:01.874Z,16.7143
2023-04-15T08:44:01.908Z,17.2143
2023-04-15T08:45:02.031Z,16.1429
2023-04-15T08:46:01.999Z,15.7143
2023-04-15T08:47:02.168Z,16.1429
2023-04-15T08:48:02.200Z,16.1429
2023-04-15T08:49:02.377Z,16.2143
2023-04-15T08:50:02.164Z,17.3571
2023-04-15T08:51:02.204Z,16.4286
2023-04-15T08:52:02.256Z,15.5
2023-04-15T08:53:02.380Z,16.2143
2023-04-15T08:54:02.333Z,16.5
2023-04-15T08:55:02.382Z,17.4286
2023-04-15T08:56:02.422Z,16.9286
2023-04-15T08:57:02.468Z,16.9286
2023-04-15T08:58:02.535Z,16
2023-04-15T08:59:02.834Z,17.4286
2023-04-15T09:00:03.906Z,17
2023-04-15T09:01:02.636Z,17.4286
2023-04-15T09:02:02.682Z,16.9286
2023-04-15T09:03:02.775Z,17.6429
2023-04-15T09:04:02.753Z,16.6429
2023-04-15T09:05:02.774Z,16.1429
2023-04-15T09:06:02.823Z,16.9286
2023-04-15T09:07:02.855Z,17.9286
2023-04-15T09:08:02.938Z,17
2023-04-15T09:09:03.298Z,16
2023-04-15T09:10:03.000Z,17
2023-04-15T09:11:03.035Z,16.3571
2023-04-15T09:12:03.072Z,15.8571
2023-04-15T09:13:03.106Z,18.3571
2023-04-15T09:14:03.152Z,17.1429
2023-04-15T09:15:03.184Z,17.8571
2023-04-15T09:16:03.225Z,16.3571
2023-04-15T09:17:03.317Z,16.5
2023-04-15T09:18:03.369Z,17.6429
2023-04-15T09:19:03.516Z,16.6429
2023-04-15T09:20:03.387Z,17.2143
2023-04-15T09:21:03.424Z,16.9286
2023-04-15T09:22:03.476Z,16.8571
2023-04-15T09:23:03.530Z,16.8571
2023-04-15T09:24:03.797Z,17.1429
2023-04-15T09:25:03.596Z,17.6429
2023-04-15T09:26:03.622Z,16.1429
2023-04-15T09:27:03.689Z,16.4286
2023-04-15T09:28:03.712Z,17
2023-04-15T09:29:03.745Z,17.6429
2023-04-15T09:30:03.784Z,17.3571
2023-04-15T09:31:03.842Z,15.4286
2023-04-15T09:32:03.880Z,16.9286
2023-04-15T09:33:03.926Z,17.5
2023-04-15T09:34:04.234Z,17.2143
2023-04-15T09:35:03.997Z,16.1429
2023-04-15T09:36:04.030Z,16.6429
2023-04-15T09:37:04.127Z,16.7143
2023-04-15T09:38:04.136Z,17.5
2023-04-15T09:39:04.149Z,17.2143
2023-04-15T09:40:04.200Z,17
2023-04-15T09:41:04.225Z,16.3571
2023-04-15T09:42:04.276Z,16.7143
2023-04-15T09:43:04.312Z,16.6429
2023-04-15T09:44:04.363Z,16.7143
2023-04-15T09:45:04.384Z,17
2023-04-15T09:46:04.483Z,16.6429
2023-04-15T09:47:04.462Z,16.2143
2023-04-15T09:48:04.608Z,15.7143
2023-04-15T09:49:04.578Z,16.6429
2023-04-15T09:51:04.615Z,16.6429
2023-04-15T09:52:06.556Z,17.1429
2023-04-15T09:53:04.703Z,16.8571
2023-04-15T09:54:04.740Z,17.5
2023-04-15T09:55:04.774Z,16.5
2023-04-15T09:56:04.808Z,16.7143
2023-04-15T09:57:04.850Z,16.3571
2023-04-15T09:58:04.884Z,16.8571
2023-04-15T09:59:04.939Z,17.1429
2023-04-15T10:00:04.962Z,16.7143
2023-04-15T10:01:05.089Z,17
2023-04-15T10:02:05.058Z,17.4286
2023-04-15T10:03:05.304Z,16.5
2023-04-15T10:04:05.575Z,17.1429
2023-04-15T10:05:05.177Z,16.4286
2023-04-15T10:06:05.209Z,17.7143
2023-04-15T10:07:05.274Z,17.2143
2023-04-15T10:08:05.292Z,17.3571
2023-04-15T10:09:05.336Z,16.2143
2023-04-15T10:10:05.405Z,16.7143
2023-04-15T10:11:05.500Z,16.8571
2023-04-15T10:12:05.476Z,17.4286
2023-04-15T10:13:05.509Z,17.3571
2023-04-15T10:14:05.544Z,17.3571
2023-04-15T10:15:05.572Z,16.9286
2023-04-15T10:16:05.690Z,16.9286
2023-04-15T10:17:05.659Z,17.2143
2023-04-15T10:18:05.779Z,17.8571
2023-04-15T10:19:05.736Z,17.2143
2023-04-15T10:20:05.779Z,17.8571
2023-04-15T10:21:05.827Z,18.2143
2023-04-15T10:22:05.864Z,17.3571
2023-04-15T10:23:08.156Z,16.9286
2023-04-15T10:24:05.943Z,16.3571
2023-04-15T10:25:05.977Z,16.8571
2023-04-15T10:26:06.020Z,17.5
2023-04-15T10:27:06.065Z,17
2023-04-15T10:28:06.095Z,17.1429
2023-04-15T10:29:06.146Z,17.1429
2023-04-15T10:30:06.182Z,15.7143
2023-04-15T10:31:06.279Z,16.9286
2023-04-15T10:32:06.283Z,15.6429
2023-04-15T10:33:06.313Z,16.3571
2023-04-15T10:34:06.395Z,17.4286
2023-04-15T10:35:06.392Z,15.6429
2023-04-15T10:36:06.432Z,16.5
2023-04-15T10:37:06.471Z,16.6429
2023-04-15T10:38:06.522Z,16.1429
2023-04-15T10:39:06.574Z,17
2023-04-15T10:40:06.605Z,16.6429
2023-04-15T10:41:06.638Z,15.8571
2023-04-15T10:42:06.688Z,17.1429
2023-04-15T10:43:06.719Z,16.8571
2023-04-15T10:44:06.758Z,17.1429
2023-04-15T10:45:06.813Z,15.6429
2023-04-15T10:46:06.891Z,16.9286
2023-04-15T10:47:06.885Z,16.8571
2023-04-15T10:48:06.996Z,17.4286
2023-04-15T10:49:06.970Z,17.3571
2023-04-15T10:50:07.024Z,16.4286
2023-04-15T10:51:07.059Z,17.5
2023-04-15T10:52:07.097Z,16.2143
2023-04-15T10:53:07.138Z,17.1429
2023-04-15T10:54:07.343Z,17.2143
2023-04-15T10:55:07.217Z,17.6429
2023-04-15T10:56:07.257Z,17.1429
2023-04-15T10:57:07.309Z,15.6429
2023-04-15T10:58:07.350Z,17.4286
2023-04-15T10:59:07.396Z,16.7143
2023-04-15T11:00:07.420Z,16.6429
2023-04-15T11:01:07.464Z,17.5
2023-04-15T11:02:07.617Z,17.1429
2023-04-15T11:03:07.887Z,17
2023-04-15T11:04:07.955Z,17.1429
2023-04-15T11:05:07.637Z,16.1429
2023-04-15T11:06:07.678Z,17.3571
2023-04-15T11:07:07.725Z,16.7143
2023-04-15T11:08:07.748Z,16.6429
2023-04-15T11:09:07.794Z,17.8571
2023-04-15T11:10:07.833Z,17
2023-04-15T11:11:07.869Z,17.2143
2023-04-15T11:12:07.911Z,17.1429
2023-04-15T11:13:07.951Z,17
2023-04-15T11:14:07.991Z,16.8571
2023-04-15T11:15:08.034Z,16.8571
2023-04-15T11:16:08.110Z,16.8571
2023-04-15T11:17:08.122Z,16.2143
2023-04-15T11:18:08.195Z,16.8571
2023-04-15T11:19:08.216Z,16.5
2023-04-15T11:20:08.252Z,16.5
2023-04-15T11:21:08.354Z,17.2143
2023-04-15T11:22:08.327Z,16.6429
2023-04-15T11:23:14.692Z,15.9286
2023-04-15T11:24:08.688Z,16.1429
2023-04-15T11:25:08.448Z,16.3571
2023-04-15T11:26:08.507Z,16.3571
2023-04-15T11:27:08.535Z,15.8571
2023-04-15T11:28:08.606Z,16.8571
2023-04-15T11:29:08.614Z,16.8571
2023-04-15T11:30:08.656Z,16.6429
2023-04-15T11:31:08.703Z,15.9286
2023-04-15T11:32:08.776Z,16.4286
2023-04-15T11:33:08.778Z,16.8571
2023-04-15T11:34:08.812Z,16.4286
2023-04-15T11:35:08.851Z,15.9286
2023-04-15T11:36:08.898Z,16.7143
2023-04-15T11:37:08.945Z,15.2143
2023-04-15T11:38:08.975Z,15.8571
2023-04-15T11:39:09.016Z,15.5
2023-04-15T11:40:09.096Z,15.7143
2023-04-15T11:41:09.103Z,16.1429
2023-04-15T11:42:09.141Z,17
2023-04-15T11:43:09.203Z,16.4286
2023-04-15T11:44:09.216Z,16.8571
2023-04-15T11:45:09.263Z,15.6429
2023-04-15T11:46:09.336Z,16.2143
2023-04-15T11:47:09.333Z,16.4286
2023-04-15T11:48:09.378Z,16.4286
2023-04-15T11:49:09.421Z,16.1429
2023-04-15T11:50:09.447Z,16
2023-04-15T11:51:09.500Z,15.8571
2023-04-15T11:52:09.536Z,15.4286
2023-04-15T11:53:09.563Z,14.8571
2023-04-15T11:54:09.608Z,15.7143
2023-04-15T11:55:09.652Z,16.2143
2023-04-15T11:56:09.680Z,15.8571
2023-04-15T11:57:09.729Z,15.7143
2023-04-15T11:58:09.773Z,15.5
2023-04-15T11:59:09.804Z,15.4286
2023-04-15T12:00:09.867Z,15.3571
2023-04-15T12:01:09.886Z,15.3571
2023-04-15T12:02:09.967Z,14.7143
2023-04-15T12:03:10.094Z,15.8571
2023-04-15T12:04:10.376Z,14.4286
2023-04-15T12:05:10.059Z,16
2023-04-15T12:06:10.077Z,14.6429
2023-04-15T12:07:10.111Z,14.4286
2023-04-15T12:08:10.156Z,14.6429
2023-04-15T12:09:10.193Z,15.2143
2023-04-15T12:10:10.314Z,14.8571
2023-04-15T12:11:10.284Z,15.1429
2023-04-15T12:12:10.326Z,14.3571
2023-04-15T12:13:10.357Z,14.7143
2023-04-15T12:14:10.400Z,15.2143
2023-04-15T12:15:10.442Z,16
2023-04-15T12:16:10.508Z,14.7143
2023-04-15T12:17:10.529Z,13.8571
2023-04-15T12:18:10.592Z,13.7143
2023-04-15T12:19:10.602Z,15.2143
2023-04-15T12:20:10.670Z,15.1429
2023-04-15T12:21:10.691Z,14.3571
2023-04-15T12:22:10.735Z,15.1429
2023-04-15T12:23:10.761Z,15
2023-04-15T12:24:10.820Z,14.4286
2023-04-15T12:25:10.877Z,14.3571
2023-04-15T12:26:10.890Z,13.6429
2023-04-15T12:27:10.949Z,14.1429
2023-04-15T12:28:10.967Z,14